createdAt,value
2023-09-12T00:00:53.284Z,14.87
2023-09-12T00:03:22.102Z,14.87
2023-09-12T00:05:58.258Z,14.93
2023-09-12T00:08:26.531Z,14.93
2023-09-12T00:11:04.125Z,14.92
2023-09-12T00:13:32.676Z,14.90
2023-09-12T00:16:00.540Z,14.88
2023-09-12T00:18:28.346Z,14.87
2023-09-12T00:20:56.531Z,14.87
2023-09-12T00:23:24.988Z,14.86
2023-09-12T00:25:55.362Z,14.84
2023-09-12T00:28:23.086Z,14.78
2023-09-12T00:30:51.092Z,14.67
2023-09-12T00:33:18.803Z,14.68
2023-09-12T00:35:48.171Z,14.70
2023-09-12T00:38:17.784Z,14.61
2023-09-12T00:40:45.441Z,14.63
2023-09-12T00:43:13.102Z,14.61
2023-09-12T00:45:41.360Z,14.59
2023-09-12T00:48:10.375Z,14.58
2023-09-12T00:50:38.098Z,14.56
2023-09-12T00:53:05.695Z,14.56
2023-09-12T00:55:35.502Z,14.52
2023-09-12T00:58:03.772Z,14.48
2023-09-12T01:00:31.658Z,14.43
2023-09-12T01:02:59.426Z,14.37
2023-09-12T01:05:28.104Z,14.31
2023-09-12T01:07:58.390Z,14.27
2023-09-12T01:10:25.871Z,14.25
2023-09-12T01:12:53.743Z,14.24
2023-09-12T01:15:21.760Z,14.23
2023-09-12T01:17:49.555Z,14.23
2023-09-12T01:20:26.063Z,14.20
2023-09-12T01:23:05.799Z,14.18
2023-09-12T01:25:43.269Z,14.16
2023-09-12T01:28:11.130Z,14.14
2023-09-12T01:30:39.960Z,14.13
2023-09-12T01:33:07.825Z,14.10
2023-09-12T01:35:36.025Z,14.07
2023-09-12T01:38:05.648Z,14.03
2023-09-12T01:40:51.337Z,13.98
2023-09-12T01:43:22.270Z,13.91
2023-09-12T01:45:55.209Z,13.82
2023-09-12T01:48:25.405Z,13.78
2023-09-12T01:50:53.235Z,13.74
2023-09-12T01:53:20.897Z,13.73
2023-09-12T01:55:48.605Z,13.73
2023-09-12T01:58:16.266Z,13.71
2023-09-12T02:00:43.942Z,13.70
2023-09-12T02:03:11.720Z,13.69
2023-09-12T02:05:39.479Z,13.68
2023-09-12T02:08:07.097Z,13.67
2023-09-12T02:10:36.303Z,13.67
2023-09-12T02:13:03.980Z,13.67
2023-09-12T02:15:32.465Z,13.67
2023-09-12T02:18:00.310Z,13.58
2023-09-12T02:20:28.037Z,13.49
2023-09-12T02:22:56.850Z,13.44
2023-09-12T02:25:24.343Z,13.39
2023-09-12T02:27:52.028Z,13.36
2023-09-12T02:30:19.657Z,13.40
2023-09-12T02:32:47.231Z,13.36
2023-09-12T02:35:14.976Z,13.38
2023-09-12T02:37:42.723Z,13.44
2023-09-12T02:40:13.155Z,13.46
2023-09-12T02:42:41.689Z,13.45
2023-09-12T02:45:10.383Z,13.44
2023-09-12T02:47:38.091Z,13.43
2023-09-12T02:50:06.132Z,13.42
2023-09-12T02:52:33.761Z,13.41
2023-09-12T02:55:01.383Z,13.38
2023-09-12T02:57:28.984Z,13.37
2023-09-12T02:59:56.541Z,13.36
2023-09-12T03:02:24.208Z,13.36
2023-09-12T03:04:52.084Z,13.35
2023-09-12T03:07:19.696Z,13.35
2023-09-12T03:09:51.092Z,13.34
2023-09-12T03:12:18.648Z,13.29
2023-09-12T03:14:46.276Z,13.20
2023-09-12T03:17:13.873Z,13.12
2023-09-12T03:19:41.613Z,13.07
2023-09-12T03:22:09.245Z,13.06
2023-09-12T03:24:36.880Z,13.06
2023-09-12T03:27:05.333Z,13.07
2023-09-12T03:29:34.542Z,13.08
2023-09-12T03:32:02.259Z,13.10
2023-09-12T03:34:30.563Z,13.11
2023-09-12T03:36:58.187Z,13.13
2023-09-12T03:39:25.708Z,13.16
2023-09-12T03:41:53.303Z,13.17
2023-09-12T03:44:21.070Z,13.19
2023-09-12T03:46:48.749Z,13.19
2023-09-12T03:49:18.496Z,13.17
2023-09-12T03:51:46.321Z,13.15
2023-09-12T03:54:14.934Z,13.18
2023-09-12T03:56:44.490Z,13.23
2023-09-12T03:59:15.008Z,13.23
2023-09-12T04:01:42.718Z,13.31
2023-09-12T04:04:10.948Z,13.35
2023-09-12T04:06:39.855Z,13.39
2023-09-12T04:09:08.031Z,13.42
2023-09-12T04:11:46.366Z,13.45
2023-09-12T04:14:15.713Z,13.50
2023-09-12T04:16:43.549Z,13.56
2023-09-12T04:19:11.298Z,13.62
2023-09-12T04:21:39.421Z,13.70
2023-09-12T04:24:08.072Z,13.76
2023-09-12T04:26:35.713Z,13.81
2023-09-12T04:29:03.744Z,13.86
2023-09-12T04:31:31.827Z,13.93
2023-09-12T04:33:59.720Z,14.01
2023-09-12T04:36:27.392Z,14.11
2023-09-12T04:38:54.989Z,14.23
2023-09-12T04:41:23.831Z,14.31
2023-09-12T04:43:51.587Z,14.39
2023-09-12T04:46:19.173Z,14.42
2023-09-12T04:48:47.124Z,14.46
2023-09-12T04:51:14.916Z,14.54
2023-09-12T04:53:42.473Z,14.64
2023-09-12T04:56:11.361Z,14.76
2023-09-12T04:58:39.703Z,14.87
2023-09-12T05:01:07.305Z,14.92
2023-09-12T05:03:34.966Z,15.00
2023-09-12T05:06:02.848Z,15.11
2023-09-12T05:08:31.081Z,15.25
2023-09-12T05:10:58.884Z,15.39
2023-09-12T05:13:29.399Z,15.53
2023-09-12T05:15:58.020Z,15.68
2023-09-12T05:18:26.334Z,15.81
2023-09-12T05:20:54.069Z,15.94
2023-09-12T05:23:21.641Z,16.05
2023-09-12T05:25:49.212Z,16.18
2023-09-12T05:28:17.396Z,16.31
2023-09-12T05:30:49.622Z,16.44
2023-09-12T05:33:19.460Z,16.57
2023-09-12T05:35:48.493Z,16.72
2023-09-12T05:38:16.205Z,16.85
2023-09-12T05:40:44.361Z,16.98
2023-09-12T05:43:12.024Z,17.15
2023-09-12T05:45:39.905Z,17.29
2023-09-12T05:48:07.745Z,17.42
2023-09-12T05:50:37.782Z,17.55
2023-09-12T05:53:06.416Z,17.68
2023-09-12T05:55:34.048Z,17.78
2023-09-12T05:58:01.726Z,17.89
2023-09-12T06:00:29.900Z,18.03
2023-09-12T06:02:57.758Z,18.17
2023-09-12T06:05:25.983Z,18.28
2023-09-12T06:07:54.900Z,18.39
2023-09-12T06:10:22.914Z,18.50
2023-09-12T06:12:51.064Z,18.64
2023-09-12T06:15:19.089Z,18.76
2023-09-12T06:17:49.329Z,18.87
2023-09-12T06:20:17.137Z,19.01
2023-09-12T06:22:44.929Z,19.16
2023-09-12T06:25:17.019Z,19.32
2023-09-12T06:27:44.636Z,19.48
2023-09-12T06:30:13.166Z,19.63
2023-09-12T06:32:40.994Z,19.77
2023-09-12T06:35:10.002Z,19.90
2023-09-12T06:37:39.462Z,20.02
2023-09-12T06:40:08.668Z,20.17
2023-09-12T06:42:36.276Z,20.27
2023-09-12T06:45:03.997Z,20.35
2023-09-12T06:47:31.654Z,20.43
2023-09-12T06:49:59.180Z,20.55
2023-09-12T06:52:26.772Z,20.69
2023-09-12T06:54:54.340Z,20.82
2023-09-12T06:57:22.003Z,20.94
2023-09-12T06:59:50.614Z,21.05
2023-09-12T07:02:19.911Z,21.12
2023-09-12T07:04:47.700Z,21.24
2023-09-12T07:07:15.282Z,21.34
2023-09-12T07:09:42.927Z,21.45
2023-09-12T07:12:11.098Z,21.58
2023-09-12T07:14:40.179Z,21.70
2023-09-12T07:17:08.040Z,21.82
2023-09-12T07:19:35.610Z,21.94
2023-09-12T07:22:03.152Z,22.05
2023-09-12T07:24:30.908Z,22.17
2023-09-12T07:27:01.079Z,22.27
2023-09-12T07:29:29.070Z,22.36
2023-09-12T07:31:58.443Z,22.44
2023-09-12T07:34:29.233Z,22.52
2023-09-12T07:36:57.135Z,22.59
2023-09-12T07:39:26.516Z,22.66
2023-09-12T07:41:54.212Z,22.73
2023-09-12T07:44:22.332Z,22.82
2023-09-12T07:46:50.103Z,22.91
2023-09-12T07:49:17.712Z,23.02
2023-09-12T07:51:45.321Z,23.10
2023-09-12T07:54:12.919Z,23.08
2023-09-12T07:56:40.525Z,23.11
2023-09-12T07:59:12.277Z,23.21
2023-09-12T08:01:40.135Z,23.32
2023-09-12T08:04:07.821Z,23.43
2023-09-12T08:06:47.809Z,23.50
2023-09-12T08:09:23.465Z,23.61
2023-09-12T08:11:51.179Z,23.73
2023-09-12T08:14:21.637Z,23.85
2023-09-12T08:16:49.194Z,23.98
2023-09-12T08:19:19.433Z,24.10
2023-09-12T08:21:47.529Z,24.23
2023-09-12T08:24:15.055Z,24.32
2023-09-12T08:26:43.943Z,24.34
2023-09-12T08:29:12.078Z,24.30
2023-09-12T08:31:39.718Z,24.29
2023-09-12T08:34:09.234Z,24.25
2023-09-12T08:36:37.486Z,24.35
2023-09-12T08:39:09.465Z,24.49
2023-09-12T08:41:37.235Z,24.63
2023-09-12T08:44:07.142Z,24.73
2023-09-12T08:46:34.761Z,24.85
2023-09-12T08:49:02.351Z,24.96
2023-09-12T08:51:29.995Z,25.03
2023-09-12T08:53:57.560Z,25.14
2023-09-12T08:56:26.103Z,25.25
2023-09-12T08:58:53.674Z,25.38
2023-09-12T09:01:22.748Z,25.52
2023-09-12T09:03:50.348Z,25.67
2023-09-12T09:06:21.736Z,25.79
2023-09-12T09:08:52.223Z,25.80
2023-09-12T09:11:19.784Z,25.81
2023-09-12T09:13:48.480Z,25.83
2023-09-12T09:16:22.930Z,25.90
2023-09-12T09:18:54.485Z,25.96
2023-09-12T09:21:27.282Z,26.06
2023-09-12T09:23:55.754Z,26.11
2023-09-12T09:26:23.605Z,26.05
2023-09-12T09:29:10.874Z,26.02
2023-09-12T09:31:43.190Z,26.07
2023-09-12T09:34:18.319Z,26.15
2023-09-12T09:36:53.080Z,26.26
2023-09-12T09:39:22.454Z,26.29
2023-09-12T09:41:51.301Z,26.32
2023-09-12T09:44:18.926Z,26.32
2023-09-12T09:46:47.336Z,26.25
2023-09-12T09:49:22.157Z,26.19
2023-09-12T09:51:49.781Z,26.19
2023-09-12T09:54:17.405Z,26.28
2023-09-12T09:56:54.555Z,26.33
2023-09-12T09:59:23.549Z,26.32
2023-09-12T10:01:52.710Z,26.38
2023-09-12T10:04:20.653Z,26.44
2023-09-12T10:06:48.359Z,26.50
2023-09-12T10:09:16.329Z,26.57
2023-09-12T10:11:45.223Z,26.65
2023-09-12T10:14:13.109Z,26.77
2023-09-12T10:16:46.201Z,26.86
2023-09-12T10:19:28.469Z,26.93
2023-09-12T10:33:36.063Z,27.28
2023-09-12T10:36:13.012Z,27.48
2023-09-12T10:38:45.587Z,27.45
2023-09-12T10:41:14.950Z,27.38
2023-09-12T10:43:44.218Z,27.25
2023-09-12T10:46:12.076Z,27.24
2023-09-12T10:48:41.953Z,27.21
2023-09-12T10:51:09.811Z,27.16
2023-09-12T10:53:37.997Z,27.06
2023-09-12T10:56:08.761Z,27.02
2023-09-12T10:59:09.298Z,27.17
2023-09-12T11:01:38.008Z,27.35
2023-09-12T11:17:41.513Z,27.84
2023-09-12T11:20:12.581Z,28.03
2023-09-12T11:22:44.607Z,28.02
2023-09-12T11:25:26.924Z,27.98
2023-09-12T11:27:57.592Z,27.97
2023-09-12T11:30:32.264Z,28.00
2023-09-12T11:33:01.251Z,28.08
2023-09-12T11:35:30.216Z,28.17
2023-09-12T11:37:59.503Z,28.26
2023-09-12T11:40:34.494Z,28.31
2023-09-12T11:43:05.222Z,28.38
2023-09-12T11:45:33.105Z,28.45
2023-09-12T11:48:00.833Z,28.46
2023-09-12T11:50:32.396Z,28.44
2023-09-12T11:53:07.695Z,28.44
2023-09-12T11:55:37.627Z,28.44
2023-09-12T11:58:05.870Z,28.44
2023-09-12T12:00:33.986Z,28.45
2023-09-12T12:03:01.735Z,28.39
2023-09-12T12:05:30.067Z,28.32
2023-09-12T12:08:16.314Z,28.29
2023-09-12T12:10:45.536Z,28.27
2023-09-12T12:13:16.866Z,28.17
2023-09-12T12:15:44.808Z,28.14
2023-09-12T12:18:12.952Z,28.18
2023-09-12T12:20:41.329Z,28.21
2023-09-12T12:23:09.057Z,28.19
2023-09-12T12:25:36.933Z,28.19
2023-09-12T12:28:05.323Z,28.19
2023-09-12T12:30:39.035Z,28.21
2023-09-12T12:34:07.515Z,28.26
2023-09-12T12:36:05.488Z,28.29
2023-09-12T12:38:48.954Z,28.36
2023-09-12T12:41:37.778Z,28.45
2023-09-12T12:44:13.187Z,28.49
2023-09-12T12:46:56.232Z,28.48
2023-09-12T12:49:24.690Z,28.49
2023-09-12T12:51:52.336Z,28.48
2023-09-12T12:54:23.361Z,28.49
2023-09-12T12:56:51.373Z,28.52
2023-09-12T12:59:18.985Z,28.58
2023-09-12T13:01:46.899Z,28.65
2023-09-12T13:04:14.569Z,28.74
2023-09-12T13:06:43.858Z,28.81
2023-09-12T13:09:12.803Z,28.84
2023-09-12T13:11:40.665Z,28.89
2023-09-12T13:14:11.362Z,28.93
2023-09-12T13:16:42.055Z,29.01
2023-09-12T13:19:12.526Z,29.08
2023-09-12T13:21:40.403Z,29.11
2023-09-12T13:24:08.354Z,29.13
2023-09-12T13:26:35.919Z,29.19
2023-09-12T13:29:03.930Z,29.24
2023-09-12T13:31:33.094Z,29.23
2023-09-12T13:34:01.289Z,29.16
2023-09-12T13:36:31.073Z,29.14
2023-09-12T13:38:58.703Z,29.18
2023-09-12T13:41:27.735Z,29.20
2023-09-12T13:43:55.533Z,29.22
2023-09-12T13:46:23.253Z,29.18
2023-09-12T13:48:51.120Z,29.13
2023-09-12T13:51:18.687Z,29.08
2023-09-12T13:53:46.685Z,29.10
2023-09-12T13:56:14.547Z,29.15
2023-09-12T13:58:44.456Z,29.16
2023-09-12T14:01:26.518Z,29.14
2023-09-12T14:03:59.213Z,29.16
2023-09-12T14:06:28.941Z,29.21
2023-09-12T14:08:57.512Z,29.21
2023-09-12T14:11:32.870Z,29.20
2023-09-12T14:16:36.927Z,29.29
2023-09-12T14:19:05.037Z,29.31
2023-09-12T14:21:33.136Z,29.31
2023-09-12T14:24:01.929Z,29.37
2023-09-12T14:26:30.305Z,29.46
2023-09-12T14:28:58.256Z,29.52
2023-09-12T14:31:26.639Z,29.52
2023-09-12T14:33:54.478Z,29.60
2023-09-12T14:36:22.167Z,29.82
2023-09-12T14:38:50.185Z,30.22
2023-09-12T14:41:17.836Z,30.72
2023-09-12T14:43:45.729Z,31.24
2023-09-12T14:46:13.824Z,31.74
2023-09-12T14:48:51.753Z,32.23
2023-09-12T14:51:31.825Z,32.72
2023-09-12T14:54:02.411Z,33.10
2023-09-12T14:56:30.974Z,33.33
2023-09-12T14:58:58.678Z,33.54
2023-09-12T15:01:26.477Z,33.68
2023-09-12T15:03:54.826Z,33.74
2023-09-12T15:06:24.490Z,33.72
2023-09-12T15:08:52.189Z,33.69
2023-09-12T15:11:19.925Z,33.70
2023-09-12T15:13:48.608Z,33.64
2023-09-12T15:16:17.031Z,33.56
2023-09-12T15:18:44.864Z,33.50
2023-09-12T15:21:12.428Z,33.40
2023-09-12T15:23:39.971Z,33.31
2023-09-12T15:26:07.607Z,33.31
2023-09-12T15:28:35.433Z,33.32
2023-09-12T15:31:04.843Z,33.26
2023-09-12T15:33:34.274Z,33.15
2023-09-12T15:36:02.145Z,33.04
2023-09-12T15:38:31.200Z,32.95
2023-09-12T15:40:59.871Z,32.79
2023-09-12T15:43:28.253Z,32.52
2023-09-12T15:45:56.002Z,32.23
2023-09-12T15:48:24.274Z,31.90
2023-09-12T15:50:52.419Z,31.54
2023-09-12T15:53:20.043Z,31.12
2023-09-12T15:55:49.953Z,30.62
2023-09-12T15:58:17.564Z,30.04
2023-09-12T16:00:45.252Z,29.49
2023-09-12T16:03:13.245Z,28.94
2023-09-12T16:05:40.982Z,28.49
2023-09-12T16:08:09.152Z,28.06
2023-09-12T16:10:37.079Z,27.63
2023-09-12T16:13:05.237Z,27.26
2023-09-12T16:15:34.670Z,26.89
2023-09-12T16:18:02.652Z,26.53
2023-09-12T16:20:30.891Z,26.20
2023-09-12T16:22:58.533Z,25.90
2023-09-12T16:25:26.164Z,25.63
2023-09-12T16:27:54.024Z,25.36
2023-09-12T16:30:21.697Z,25.11
2023-09-12T16:32:49.342Z,24.87
2023-09-12T16:35:17.168Z,24.63
2023-09-12T16:37:45.250Z,24.35
2023-09-12T16:40:12.871Z,24.10
2023-09-12T16:42:40.469Z,23.87
2023-09-12T16:45:09.700Z,23.66
2023-09-12T16:47:37.362Z,23.44
2023-09-12T16:50:05.416Z,23.19
2023-09-12T16:52:33.054Z,22.94
2023-09-12T16:55:00.668Z,22.69
2023-09-12T16:57:28.531Z,22.46
2023-09-12T16:59:56.203Z,22.24
2023-09-12T17:02:25.389Z,22.03
2023-09-12T17:04:53.323Z,21.83
2023-09-12T17:07:21.181Z,21.62
2023-09-12T17:09:51.582Z,21.38
2023-09-12T17:12:19.194Z,21.18
2023-09-12T17:14:46.710Z,21.02
2023-09-12T17:17:14.315Z,20.88
2023-09-12T17:19:41.921Z,20.69
2023-09-12T17:22:09.384Z,20.54
2023-09-12T17:24:37.170Z,20.39
2023-09-12T17:27:04.966Z,20.25
2023-09-12T17:29:32.597Z,20.12
2023-09-12T17:32:09.222Z,20.01
2023-09-12T17:34:43.848Z,19.91
2023-09-12T17:37:11.876Z,19.80
2023-09-12T17:39:40.038Z,19.74
2023-09-12T17:42:07.884Z,19.69
2023-09-12T17:44:35.848Z,19.64
2023-09-12T17:47:03.923Z,19.58
2023-09-12T17:49:34.627Z,19.51
2023-09-12T17:52:02.978Z,19.43
2023-09-12T17:54:30.559Z,19.37
2023-09-12T17:56:59.471Z,19.30
2023-09-12T17:59:28.182Z,19.23
2023-09-12T18:01:55.924Z,19.15
2023-09-12T18:04:25.681Z,19.09
2023-09-12T18:06:54.482Z,19.03
2023-09-12T18:09:22.209Z,18.99
2023-09-12T18:11:49.944Z,18.95
2023-09-12T18:14:17.644Z,18.92
2023-09-12T18:16:45.421Z,18.88
2023-09-12T18:19:13.363Z,18.84
2023-09-12T18:21:41.104Z,18.79
2023-09-12T18:24:08.699Z,18.74
2023-09-12T18:26:36.262Z,18.68
2023-09-12T18:29:04.060Z,18.61
2023-09-12T18:31:31.666Z,18.56
2023-09-12T18:33:59.387Z,18.51
2023-09-12T18:36:29.768Z,18.47
2023-09-12T18:38:57.334Z,18.43
2023-09-12T18:41:24.957Z,18.39
2023-09-12T18:43:53.214Z,18.34
2023-09-12T18:46:21.111Z,18.29
2023-09-12T18:48:48.856Z,18.23
2023-09-12T18:51:16.506Z,18.17
2023-09-12T18:53:44.382Z,18.12
2023-09-12T18:56:12.209Z,18.06
2023-09-12T18:58:40.472Z,18.01
2023-09-12T19:01:09.430Z,17.98
2023-09-12T19:03:37.457Z,17.95
2023-09-12T19:06:05.857Z,17.92
2023-09-12T19:08:33.546Z,17.89
2023-09-12T19:11:01.164Z,17.84
2023-09-12T19:13:28.917Z,17.81
2023-09-12T19:15:56.680Z,17.78
2023-09-12T19:18:24.281Z,17.76
2023-09-12T19:20:51.898Z,17.74
2023-09-12T19:23:20.089Z,17.72
2023-09-12T19:25:49.450Z,17.70
2023-09-12T19:28:18.266Z,17.68
2023-09-12T19:30:46.246Z,17.66
2023-09-12T19:33:15.027Z,17.62
2023-09-12T19:35:43.337Z,17.58
2023-09-12T19:38:11.022Z,17.56
2023-09-12T19:40:39.973Z,17.54
2023-09-12T19:43:07.731Z,17.51
2023-09-12T19:45:36.310Z,17.48
2023-09-12T19:48:06.697Z,17.45
2023-09-12T19:50:35.497Z,17.43
2023-09-12T19:53:03.090Z,17.41
2023-09-12T19:55:30.672Z,17.39
2023-09-12T19:57:58.541Z,17.37
2023-09-12T20:00:26.090Z,17.35
2023-09-12T20:02:53.835Z,17.32
2023-09-12T20:05:24.404Z,17.26
2023-09-12T20:07:52.457Z,17.19
2023-09-12T20:10:22.101Z,17.15
2023-09-12T20:12:52.221Z,17.09
2023-09-12T20:15:21.799Z,17.06
2023-09-12T20:17:52.965Z,17.02
2023-09-12T20:20:23.225Z,17.00
2023-09-12T20:22:51.244Z,16.98
2023-09-12T20:25:20.680Z,16.94
2023-09-12T20:27:49.876Z,16.90
2023-09-12T20:30:17.540Z,16.85
2023-09-12T20:32:57.682Z,16.80
2023-09-12T20:35:30.839Z,16.78
2023-09-12T20:37:59.285Z,16.78
2023-09-12T20:40:27.908Z,16.77
2023-09-12T20:42:56.319Z,16.79
2023-09-12T20:45:23.978Z,16.80
2023-09-12T20:47:52.931Z,16.80
2023-09-12T20:50:27.040Z,16.80
2023-09-12T20:52:59.861Z,16.80
2023-09-12T20:55:28.771Z,16.80
2023-09-12T20:57:58.226Z,16.80
2023-09-12T21:00:28.866Z,16.79
2023-09-12T21:02:56.593Z,16.77
2023-09-12T21:05:24.968Z,16.74
2023-09-12T21:07:52.571Z,16.72
2023-09-12T21:10:20.151Z,16.71
2023-09-12T21:12:47.757Z,16.68
2023-09-12T21:15:15.612Z,16.67
2023-09-12T21:17:43.294Z,16.64
2023-09-12T21:20:11.216Z,16.59
2023-09-12T21:22:38.764Z,16.56
2023-09-12T21:25:06.820Z,16.52
2023-09-12T21:27:34.466Z,16.49
2023-09-12T21:30:04.869Z,16.45
2023-09-12T21:32:33.794Z,16.41
2023-09-12T21:35:12.236Z,16.39
2023-09-12T21:37:42.029Z,16.35
2023-09-12T21:40:11.852Z,16.33
2023-09-12T21:42:40.932Z,16.29
2023-09-12T21:45:13.325Z,16.27
2023-09-12T21:47:41.279Z,16.24
2023-09-12T21:50:09.342Z,16.22
2023-09-12T21:52:38.110Z,16.20
2023-09-12T21:55:06.123Z,16.18
2023-09-12T21:57:35.082Z,16.23
2023-09-12T22:00:14.121Z,16.27
2023-09-12T22:02:41.792Z,16.27
2023-09-12T22:05:09.721Z,16.27
2023-09-12T22:07:37.606Z,16.27
2023-09-12T22:10:05.798Z,16.26
2023-09-12T22:12:33.448Z,16.24
2023-09-12T22:15:01.060Z,16.23
2023-09-12T22:17:28.605Z,16.22
2023-09-12T22:19:57.510Z,16.11
2023-09-12T22:22:25.135Z,16.05
2023-09-12T22:24:54.134Z,16.03
2023-09-12T22:27:22.213Z,16.01
2023-09-12T22:29:49.924Z,15.97
2023-09-12T22:32:17.491Z,15.94
2023-09-12T22:34:46.585Z,15.92
2023-09-12T22:37:14.131Z,15.88
2023-09-12T22:39:46.203Z,15.81
2023-09-12T22:42:13.800Z,15.72
2023-09-12T22:44:41.821Z,15.66
2023-09-12T22:47:09.384Z,15.62
2023-09-12T22:49:36.921Z,15.60
2023-09-12T22:52:04.854Z,15.58
2023-09-12T22:54:32.492Z,15.56
2023-09-12T22:57:00.077Z,15.55
2023-09-12T22:59:30.848Z,15.54
2023-09-12T23:02:00.106Z,15.52
2023-09-12T23:04:28.173Z,15.49
2023-09-12T23:06:57.613Z,15.48
2023-09-12T23:09:25.274Z,15.45
2023-09-12T23:11:53.767Z,15.41
2023-09-12T23:14:21.828Z,15.36
2023-09-12T23:16:49.439Z,15.32
2023-09-12T23:19:17.128Z,15.29
2023-09-12T23:21:44.744Z,15.28
2023-09-12T23:24:12.276Z,15.31
2023-09-12T23:26:39.819Z,15.32
2023-09-12T23:29:07.367Z,15.35
2023-09-12T23:31:34.975Z,15.37
2023-09-12T23:34:03.343Z,15.39
2023-09-12T23:36:30.922Z,15.41
2023-09-12T23:38:58.459Z,15.42
2023-09-12T23:41:26.013Z,15.42
2023-09-12T23:43:56.206Z,15.44
2023-09-12T23:46:23.769Z,15.44
2023-09-12T23:48:51.379Z,15.44
2023-09-12T23:51:18.951Z,15.42
2023-09-12T23:53:46.643Z,15.41
2023-09-12T23:56:14.237Z,15.39
2023-09-12T23:58:41.746Z,15.36
